Time;durP1;ratioP1;P1;durP2;ratioP2;P2;SDS_P1;SDS_P2;PMS_P1;PMS_P2;Temp;Humidity;BMP_temperature;BMP_pressure;BME280_temperature;BME280_humidity;BME280_pressure;Samples;Min_cycle;Max_cycle;Signal;HPM_P1;HPM_P2
2021/05/13 00:00:19;;;;;;;3.03;0.77;;;;;;;15.69;67.79;99847.94;5078363;28;20059;-77
2021/05/13 00:03:04;;;;;;;2.63;0.90;;;;;;;15.55;68.09;99844.97;5076643;28;20047;-77
2021/05/13 00:05:49;;;;;;;1.15;0.65;;;;;;;15.58;68.82;99840.72;5082409;28;20519;-77
2021/05/13 00:08:34;;;;;;;1.02;0.90;;;;;;;15.75;67.57;99834.69;5058071;28;20054;-77
2021/05/13 00:11:20;;;;;;;4.60;0.70;;;;;;;15.70;67.82;99835.78;5077437;28;20408;-77
2021/05/13 00:14:24;;;;;;;3.65;0.90;;;;;;;15.71;68.30;99831.09;5071627;28;20047;-77
2021/05/13 00:17:08;;;;;;;;;;;;;;;15.66;68.65;99836.91;5062628;28;20043;-77
2021/05/13 00:19:53;;;;;;;1.08;0.70;;;;;;;15.66;68.82;99832.22;5075626;28;19916;-77
2021/05/13 00:22:57;;;;;;;1.55;0.80;;;;;;;15.57;69.60;99833.66;5073733;28;20039;-77
2021/05/13 00:25:42;;;;;;;1.27;1.00;;;;;;;15.62;69.70;99836.06;5065883;28;20043;-77
2021/05/13 00:28:27;;;;;;;3.80;1.15;;;;;;;15.51;69.71;99838.66;5074160;28;20511;-77
2021/05/13 00:31:30;;;;;;;1.05;0.57;;;;;;;15.56;69.94;99829.34;5073636;28;20059;-77
2021/05/13 00:34:15;;;;;;;1.20;0.90;;;;;;;15.63;68.31;99826.69;5074178;28;20408;-77
2021/05/13 00:41:00;;;;;;;3.75;1.20;;;;;;;15.52;69.16;99828.50;5055907;28;20052;-77
2021/05/13 00:43:45;;;;;;;4.90;1.02;;;;;;;15.50;69.35;99834.31;5071528;28;20063;-77
2021/05/13 00:46:30;;;;;;;;;;;;;;;15.44;69.78;99832.28;5064514;28;20052;-77
2021/05/13 00:49:17;;;;;;;0.60;0.60;;;;;;;15.50;69.07;99828.81;5074514;28;19916;-77
2021/05/13 00:52:02;;;;;;;1.52;0.90;;;;;;;15.51;69.18;99832.34;5073213;28;20044;-77
2021/05/13 00:54:48;;;;;;;1.00;0.77;;;;;;;15.61;68.94;99829.00;5074974;28;20043;-77
2021/05/13 00:57:33;;;;;;;;;;;;;;;15.61;69.26;99829.00;5076085;28;20072;-76
2021/05/13 01:03:36;;;;;;;3.55;1.77;;;;;;;15.80;67.64;99826.13;5070579;28;20114;-77
2021/05/13 01:06:21;;;;;;;3.70;1.50;;;;;;;15.69;68.67;99828.75;5073052;28;20047;-77
2021/05/13 01:09:09;;;;;;;2.60;1.05;;;;;;;15.66;68.96;99823.22;5061457;28;20047;-76
2021/05/13 01:12:16;;;;;;;2.22;1.00;;;;;;;15.62;69.48;99823.16;5075679;28;20056;-77
2021/05/13 01:15:08;;;;;;;1.65;1.10;;;;;;;15.62;69.22;99816.91;5071875;28;20055;-77
2021/05/13 01:18:21;;;;;;;3.40;1.20;;;;;;;15.65;68.91;99824.34;5081506;22;20059;-81
2021/05/13 01:21:25;;;;;;;1.73;1.00;;;;;;;15.60;69.24;99822.72;4991227;28;20061;-77
2021/05/13 01:24:12;;;;;;;5.03;1.30;;;;;;;15.64;69.12;99828.28;4995200;28;20512;-78
2021/05/13 01:26:57;;;;;;;4.25;1.25;;;;;;;15.71;68.62;99823.69;4997752;28;20053;-77
2021/05/13 01:29:46;;;;;;;;;;;;;;;15.67;69.04;99822.06;5003349;28;20425;-78
2021/05/13 01:32:32;;;;;;;1.70;1.35;;;;;;;15.65;69.35;99811.44;4996527;28;19913;-78
2021/05/13 01:35:17;;;;;;;;;;;;;;;15.62;69.31;99811.41;4999624;28;20064;-78
2021/05/13 01:38:11;;;;;;;6.53;1.40;;;;;;;15.62;69.31;99811.41;5015956;28;19913;-77
2021/05/13 01:41:02;;;;;;;4.35;1.90;;;;;;;15.55;70.04;99819.53;5017055;28;20311;-78
2021/05/13 01:46:51;;;;;;;3.78;1.42;;;;;;;15.47;70.10;99820.56;5002927;28;20033;-78
2021/05/13 01:49:36;;;;;;;1.95;1.25;;;;;;;15.55;70.23;99814.03;5025412;28;20053;-77
2021/05/13 01:52:21;;;;;;;2.22;1.33;;;;;;;15.55;70.12;99816.78;5016583;28;20061;-78
2021/05/13 01:55:06;;;;;;;;;;;;;;;15.70;69.64;99821.28;5016457;28;20547;-78
2021/05/13 01:57:52;;;;;;;2.07;1.20;;;;;;;15.84;69.07;99816.03;5020819;28;19921;-79
2021/05/13 02:00:38;;;;;;;2.80;1.42;;;;;;;15.90;68.82;99820.00;5004891;28;20805;-79
2021/05/13 02:03:25;;;;;;;2.40;1.50;;;;;;;15.84;68.82;99818.78;5017650;28;20056;-78
2021/05/13 02:06:12;;;;;;;2.88;1.55;;;;;;;15.83;68.82;99811.69;5022012;28;20049;-78
2021/05/13 02:08:57;;;;;;;3.95;1.50;;;;;;;15.84;68.61;99818.78;5019291;28;20056;-78
2021/05/13 02:12:03;;;;;;;5.97;1.63;;;;;;;15.73;69.60;99815.88;5017633;28;20049;-78
2021/05/13 02:14:48;;;;;;;4.63;2.05;;;;;;;15.60;69.68;99808.25;5020696;28;20048;-77
2021/05/13 02:17:33;;;;;;;;;;;;;;;15.46;70.64;99808.00;5019929;28;20041;-79
2021/05/13 02:20:22;;;;;;;5.73;1.70;;;;;;;15.52;70.53;99812.06;5016075;28;19917;-78
2021/05/13 02:23:26;;;;;;;4.28;1.70;;;;;;;15.55;70.37;99798.41;5020002;28;20058;-78
2021/05/13 02:26:12;;;;;;;6.50;1.70;;;;;;;15.67;70.24;99802.88;5018796;28;20057;-78
2021/05/13 02:29:15;;;;;;;;;;;;;;;15.79;70.04;99794.41;5014705;28;20065;-77
2021/05/13 02:32:00;;;;;;;4.55;2.72;;;;;;;15.73;70.10;99790.41;5022652;28;19913;-78
2021/05/13 02:34:45;;;;;;;4.65;1.73;;;;;;;15.67;70.36;99794.66;5017758;28;20064;-77
2021/05/13 02:37:30;;;;;;;;;;;;;;;15.72;70.02;99789.63;5022165;28;20053;-78
2021/05/13 02:40:16;;;;;;;4.33;2.30;;;;;;;15.71;69.34;99785.31;5022378;28;19918;-79
2021/05/13 02:43:03;;;;;;;5.07;2.70;;;;;;;15.57;69.78;99785.13;5004100;28;20049;-79
2021/05/13 02:45:48;;;;;;;4.07;3.30;;;;;;;15.47;69.77;99790.41;5021161;28;20571;-78
2021/05/13 02:48:32;;;;;;;;;;;;;;;15.39;70.30;99784.84;5019202;28;20416;-78
2021/05/13 02:51:17;;;;;;;3.45;2.17;;;;;;;15.36;70.82;99784.78;5016842;28;19913;-77
2021/05/13 02:54:02;;;;;;;;;;;;;;;15.29;70.73;99777.25;5012956;28;20053;-78
2021/05/13 02:56:47;;;;;;;6.67;2.33;;;;;;;15.38;70.10;99777.78;5003725;28;19913;-79
2021/05/13 02:59:43;;;;;;;3.63;2.28;;;;;;;15.39;69.98;99779.34;5011769;28;20049;-79
2021/05/13 03:02:27;;;;;;;3.08;2.28;;;;;;;15.40;68.94;99778.19;5015301;28;20392;-78
2021/05/13 03:05:15;;;;;;;5.22;2.53;;;;;;;15.35;69.38;99778.53;5022771;28;20052;-77
2021/05/13 03:08:18;;;;;;;14.82;2.05;;;;;;;15.34;69.59;99771.44;5016853;28;20412;-79
2021/05/13 03:11:03;;;;;;;3.92;2.03;;;;;;;15.36;69.95;99777.38;5018673;28;20049;-78
2021/05/13 03:14:06;;;;;;;3.17;1.95;;;;;;;15.27;69.78;99774.13;5014819;28;20068;-78
2021/05/13 03:16:51;;;;;;;3.38;1.80;;;;;;;15.21;70.03;99767.38;5021035;28;20056;-78
2021/05/13 03:19:45;;;;;;;;;;;;;;;15.31;69.82;99765.94;5017869;28;20045;-78
2021/05/13 03:22:30;;;;;;;7.03;2.20;;;;;;;15.34;69.27;99771.44;5017313;28;19917;-77
2021/05/13 03:25:16;;;;;;;4.80;1.90;;;;;;;15.43;68.93;99773.16;5024363;28;20048;-78
2021/05/13 03:28:09;;;;;;;3.75;2.10;;;;;;;15.47;68.48;99766.56;5017965;28;20412;-78
2021/05/13 03:30:54;;;;;;;2.85;2.10;;;;;;;15.41;69.37;99768.81;5013429;28;20434;-79
2021/05/13 03:33:39;;;;;;;;;;;;;;;15.49;68.31;99766.19;5021320;28;20052;-78
2021/05/13 03:36:42;;;;;;;3.45;2.63;;;;;;;15.48;67.96;99761.88;5003941;28;19913;-78
2021/05/13 03:39:27;;;;;;;3.80;2.30;;;;;;;15.46;68.38;99753.22;5014817;28;20044;-77
2021/05/13 03:42:11;;;;;;;3.92;1.88;;;;;;;15.39;68.56;99756.66;5018906;28;20114;-79
2021/05/13 03:45:15;;;;;;;6.22;1.77;;;;;;;15.31;68.79;99750.28;4998951;28;20057;-78
2021/05/13 03:48:02;;;;;;;5.07;2.38;;;;;;;15.34;68.90;99755.03;5014682;28;20053;-78
2021/05/13 03:50:48;;;;;;;5.32;2.92;;;;;;;15.33;69.04;99750.72;5019458;28;20223;-79
2021/05/13 03:53:33;;;;;;;;;;;;;;;15.35;69.45;99748.38;5016625;28;20053;-78
2021/05/13 03:56:17;;;;;;;4.63;2.63;;;;;;;15.32;69.32;99751.88;5014017;28;19914;-78
2021/05/13 03:59:11;;;;;;;;;;;;;;;15.30;69.76;99745.97;5019049;28;20531;-77
2021/05/13 04:05:08;;;;;;;3.50;2.30;;;;;;;15.25;70.16;99745.50;5013687;28;20048;-78
2021/05/13 04:08:13;;;;;;;5.72;2.65;;;;;;;15.33;69.60;99741.72;5025803;28;20069;-78
2021/05/13 04:10:57;;;;;;;3.58;2.30;;;;;;;15.30;69.37;99735.00;5013573;28;20407;-79
2021/05/13 04:13:43;;;;;;;4.47;1.98;;;;;;;15.34;69.14;99735.84;5017953;28;20048;-79
2021/05/13 04:16:29;;;;;;;4.03;2.60;;;;;;;15.21;69.77;99741.91;5016832;28;20053;-79
2021/05/13 04:19:35;;;;;;;6.85;2.45;;;;;;;15.22;70.03;99741.56;5018271;28;20057;-78
2021/05/13 04:22:38;;;;;;;4.47;2.35;;;;;;;15.12;69.98;99746.88;5016968;28;20408;-78
2021/05/13 04:25:23;;;;;;;3.35;2.92;;;;;;;15.09;70.36;99742.91;5014891;28;20053;-78
2021/05/13 04:28:08;;;;;;;3.53;2.47;;;;;;;15.14;70.17;99739.88;5018179;28;20041;-77
2021/05/13 04:30:53;;;;;;;3.83;2.80;;;;;;;15.09;70.53;99731.97;5016638;28;20535;-79
2021/05/13 04:33:38;;;;;;;;;;;;;;;15.10;70.68;99728.06;5022267;28;20045;-79
2021/05/13 04:36:42;;;;;;;4.72;2.50;;;;;;;15.14;69.79;99728.91;5019701;28;19914;-78
2021/05/13 04:39:27;;;;;;;5.40;2.40;;;;;;;15.41;69.10;99727.72;5015591;28;20045;-78
2021/05/13 04:42:12;;;;;;;;;;;;;;;15.37;69.17;99724.16;5021810;28;20049;-77
2021/05/13 04:44:57;;;;;;;6.95;2.13;;;;;;;15.34;69.19;99730.38;5000319;28;19913;-79
2021/05/13 04:50:46;;;;;;;5.28;2.83;;;;;;;15.41;68.32;99716.78;5020009;28;20548;-78
2021/05/13 04:53:31;;;;;;;4.55;2.60;;;;;;;15.37;68.91;99721.41;5018016;28;20049;-78
2021/05/13 04:56:53;;;;;;;3.28;2.53;;;;;;;15.31;68.93;99713.88;5014789;28;20044;-78
2021/05/13 04:59:38;;;;;;;3.13;2.80;;;;;;;15.43;68.35;99721.09;5020954;28;20052;-78
2021/05/13 05:02:42;;;;;;;2.80;2.03;;;;;;;15.39;69.18;99710.06;5005322;28;20044;-78
2021/05/13 05:08:31;;;;;;;9.73;2.90;;;;;;;15.37;68.70;99704.97;5019259;28;20393;-77
2021/05/13 05:11:19;;;;;;;3.75;2.55;;;;;;;15.35;69.16;99701.81;5011003;28;20049;-80
2021/05/13 05:14:04;;;;;;;7.63;3.53;;;;;;;15.35;69.55;99699.06;5017975;28;20049;-81
2021/05/13 05:16:49;;;;;;;8.88;3.20;;;;;;;15.38;69.17;99703.03;5016186;28;20049;-78
2021/05/13 05:19:35;;;;;;;10.55;3.72;;;;;;;15.54;68.94;99703.66;5013506;28;20041;-77
2021/05/13 05:22:20;;;;;;;11.80;3.42;;;;;;;15.67;68.90;99710.47;5010076;28;20058;-76
2021/05/13 05:25:06;;;;;;;5.68;3.10;;;;;;;15.99;67.60;99710.03;5015825;28;20416;-78
2021/05/13 05:27:51;;;;;;;5.05;2.90;;;;;;;16.18;66.90;99710.63;5014469;28;20408;-79
2021/05/13 05:30:37;;;;;;;5.20;1.92;;;;;;;16.29;66.07;99699.75;5018252;28;20040;-77
2021/05/13 05:33:22;;;;;;;5.13;3.78;;;;;;;16.09;66.74;99698.41;5015964;28;20436;-76
2021/05/13 05:36:08;;;;;;;10.38;2.83;;;;;;;16.38;66.07;99700.22;5014257;28;20515;-77
2021/05/13 05:38:54;;;;;;;;;;;;;;;16.41;65.65;99701.41;5020216;28;20052;-77
2021/05/13 05:41:40;;;;;;;11.05;3.90;;;;;;;16.46;65.68;99701.84;5014799;28;19918;-78
2021/05/13 05:47:28;;;;;;;5.45;3.45;;;;;;;16.64;64.49;99694.59;5013267;28;19917;-78
2021/05/13 05:50:35;;;;;;;6.85;3.72;;;;;;;16.38;66.13;99694.75;4994861;28;20069;-78
2021/05/13 05:53:21;;;;;;;9.80;3.75;;;;;;;16.18;67.18;99694.19;4999449;28;20050;-77
2021/05/13 05:56:06;;;;;;;7.03;3.05;;;;;;;16.47;66.21;99688.94;4997053;28;20057;-78
2021/05/13 05:58:51;;;;;;;7.20;3.72;;;;;;;16.18;67.39;99685.94;4996098;28;20128;-78
2021/05/13 06:01:37;;;;;;;5.25;2.47;;;;;;;16.16;66.58;99682.00;5000357;28;20057;-78
2021/05/13 06:04:22;;;;;;;5.40;3.65;;;;;;;16.04;67.57;99680.31;4998464;28;20413;-78
2021/05/13 06:07:07;;;;;;;7.53;2.58;;;;;;;16.06;67.62;99677.97;4996744;28;20057;-78
2021/05/13 06:09:52;;;;;;;;;;;;;;;16.24;66.99;99675.41;4995145;28;20072;-78
2021/05/13 06:12:37;;;;;;;11.57;3.60;;;;;;;16.20;67.12;99669.88;4998694;28;19914;-78
2021/05/13 06:15:23;;;;;;;8.43;4.20;;;;;;;16.09;67.73;99670.97;4996477;28;20053;-78
2021/05/13 06:18:08;;;;;;;5.75;3.38;;;;;;;16.23;67.23;99655.44;5001176;28;20448;-78
2021/05/13 06:21:30;;;;;;;8.00;3.58;;;;;;;16.31;66.99;99658.22;4994792;28;20046;-78
2021/05/13 06:24:18;;;;;;;9.30;3.63;;;;;;;16.58;66.00;99657.69;4995116;28;20053;-79
2021/05/13 06:27:06;;;;;;;17.60;4.05;;;;;;;17.26;63.83;99655.34;5006408;28;20316;-80
2021/05/13 06:29:52;;;;;;;8.73;2.92;;;;;;;17.50;62.53;99651.91;5018131;28;20048;-79
2021/05/13 06:32:36;;;;;;;;;;;;;;;17.58;62.52;99659.00;5012422;28;20515;-81
2021/05/13 06:35:40;;;;;;;5.78;2.90;;;;;;;17.66;62.08;99665.34;5015551;28;19914;-81
2021/05/13 06:38:27;;;;;;;4.57;2.85;;;;;;;17.82;61.63;99666.59;5013004;28;20044;-80
2021/05/13 06:41:31;;;;;;;3.47;2.58;;;;;;;17.95;61.38;99666.97;5016381;28;20615;-80
2021/05/13 06:44:17;;;;;;;5.22;2.58;;;;;;;18.09;60.62;99658.75;5015932;28;20064;-78
2021/05/13 06:47:03;;;;;;;6.15;2.72;;;;;;;18.33;60.04;99658.00;5015740;28;20053;-81
2021/05/13 06:49:48;;;;;;;;;;;;;;;18.44;59.37;99662.72;5019211;28;20053;-80
2021/05/13 06:52:33;;;;;;;6.55;2.80;;;;;;;18.37;59.76;99666.25;5018344;28;20291;-81
2021/05/13 06:55:37;;;;;;;3.08;2.22;;;;;;;18.33;59.20;99647.00;5015511;28;20068;-81
2021/05/13 06:58:23;;;;;;;4.20;2.45;;;;;;;18.37;59.28;99663.50;5019415;28;20049;-81
2021/05/13 07:01:08;;;;;;;4.32;3.00;;;;;;;18.46;58.92;99647.38;5016254;28;20516;-79
2021/05/13 07:03:53;;;;;;;;;;;;;;;18.79;58.09;99665.47;5016108;28;20053;-81
2021/05/13 07:06:38;;;;;;;5.97;2.17;;;;;;;19.06;56.87;99652.81;5018814;28;19914;-81
2021/05/13 07:09:23;;;;;;;;;;;;;;;19.08;56.41;99655.16;5016520;28;20515;-81
2021/05/13 07:12:07;;;;;;;4.50;2.50;;;;;;;19.08;56.29;99653.19;5016169;28;20376;-82
2021/05/13 07:14:54;;;;;;;5.47;2.53;;;;;;;19.13;56.04;99652.00;5019244;28;20523;-81
2021/05/13 07:17:39;;;;;;;8.57;2.30;;;;;;;19.10;55.89;99644.50;5016791;28;20052;-81
2021/05/13 07:20:24;;;;;;;7.47;2.83;;;;;;;19.12;55.64;99647.66;5036723;23;20517;-76
2021/05/13 07:23:09;;;;;;;6.10;2.80;;;;;;;19.35;55.22;99649.97;5035819;28;20040;-76
2021/05/13 07:25:55;;;;;;;8.07;2.28;;;;;;;19.07;56.05;99648.09;5032764;28;20057;-76
2021/05/13 07:28:40;;;;;;;11.15;2.70;;;;;;;19.04;55.72;99646.91;5037300;28;20064;-76
2021/05/13 07:31:44;;;;;;;12.90;2.20;;;;;;;19.11;55.69;99643.34;5034416;28;20040;-76
2021/05/13 07:34:47;;;;;;;5.78;2.60;;;;;;;19.16;55.49;99642.94;5038428;28;20048;-76
2021/05/13 07:37:32;;;;;;;5.03;1.83;;;;;;;19.03;55.75;99652.81;5035861;28;20041;-76
2021/05/13 07:40:19;;;;;;;;;;;;;;;19.05;55.49;99648.47;5027732;28;20044;-76
2021/05/13 07:43:04;;;;;;;4.70;2.13;;;;;;;19.28;54.64;99647.22;5037683;28;19916;-76
2021/05/13 07:45:49;;;;;;;7.10;2.50;;;;;;;19.37;54.36;99642.84;5036005;28;20409;-75
2021/05/13 07:48:35;;;;;;;7.72;2.50;;;;;;;19.31;54.56;99646.41;5017773;28;20049;-75
2021/05/13 07:51:20;;;;;;;;;;;;;;;19.40;54.07;99644.78;5020371;28;20604;-75
2021/05/13 07:54:06;;;;;;;9.02;2.83;;;;;;;19.29;54.34;99638.56;5020348;28;19913;-75
2021/05/13 07:56:51;;;;;;;3.80;1.75;;;;;;;19.41;54.11;99634.56;5032440;28;20052;-75
2021/05/13 07:59:36;;;;;;;;;;;;;;;19.55;53.67;99646.34;5038181;28;20520;-76
2021/05/13 08:02:20;;;;;;;9.50;2.70;;;;;;;19.41;53.30;99640.84;5022164;28;19917;-75
2021/05/13 08:05:06;;;;;;;4.00;1.77;;;;;;;19.62;52.80;99640.00;5026648;28;20044;-75
2021/05/13 08:07:51;;;;;;;3.95;2.00;;;;;;;19.73;52.50;99646.25;5037931;28;20041;-75
2021/05/13 08:10:36;;;;;;;5.28;1.75;;;;;;;19.79;52.27;99639.13;5035704;28;20052;-75
2021/05/13 08:13:20;;;;;;;;;;;;;;;20.18;51.01;99646.34;5034970;28;20516;-76
2021/05/13 08:19:09;;;;;;;8.07;1.77;;;;;;;21.46;47.52;99648.66;5031383;28;20044;-75
2021/05/13 08:22:13;;;;;;;6.78;1.92;;;;;;;21.77;46.32;99664.06;5030274;28;20071;-76
2021/05/13 08:28:58;;;;;;;2.65;0.98;;;;;;;25.98;35.80;99665.13;5036995;28;20056;-77
2021/05/13 08:31:42;;;;;;;3.92;1.85;;;;;;;26.17;35.32;99666.88;5027145;28;20041;-77
2021/05/13 08:34:28;;;;;;;9.88;1.52;;;;;;;29.08;29.95;99667.97;5020310;28;20044;-79
2021/05/13 08:37:32;;;;;;;11.88;2.00;;;;;;;30.65;26.60;99667.03;5037053;28;20045;-76
2021/05/13 08:40:17;;;;;;;12.57;1.88;;;;;;;34.05;22.01;99682.09;5034026;28;20052;-76
2021/05/13 08:43:02;;;;;;;6.78;1.42;;;;;;;34.24;21.76;99683.28;5037733;28;20121;-77
2021/05/13 08:45:47;;;;;;;5.57;1.30;;;;;;;34.73;20.96;99679.22;5036119;28;20056;-76
2021/05/13 08:48:32;;;;;;;4.72;1.40;;;;;;;35.40;20.38;99685.13;5034009;28;20524;-76
2021/05/13 08:51:18;;;;;;;5.47;1.13;;;;;;;35.97;19.80;99684.66;5017581;28;20056;-76
2021/05/13 08:54:23;;;;;;;6.10;1.13;;;;;;;33.14;23.31;99677.31;5024881;28;20048;-75
2021/05/13 08:57:10;;;;;;;5.35;1.40;;;;;;;32.25;24.29;99669.25;5017531;28;20449;-75
2021/05/13 09:00:15;;;;;;;3.58;1.48;;;;;;;32.33;24.56;99680.09;5026415;28;20049;-75
2021/05/13 09:03:00;;;;;;;4.18;1.55;;;;;;;32.59;23.85;99676.13;5030847;28;20068;-76
2021/05/13 09:06:05;;;;;;;6.95;1.67;;;;;;;33.88;22.23;99684.03;5023815;28;20052;-77
2021/05/13 09:08:50;;;;;;;6.10;1.70;;;;;;;33.91;21.97;99683.00;5020839;28;20052;-78
2021/05/13 09:11:35;;;;;;;13.32;1.42;;;;;;;35.50;20.16;99688.50;5025629;28;20053;-78
2021/05/13 09:14:27;;;;;;;8.50;2.92;;;;;;;37.28;17.91;99687.44;5033231;28;20068;-78
2021/05/13 09:17:24;;;;;;;5.03;1.55;;;;;;;35.79;18.97;99670.28;5044557;28;20048;-78
2021/05/13 09:20:22;;;;;;;4.13;1.45;;;;;;;34.81;20.72;99675.91;5027606;28;20044;-78
2021/05/13 09:23:28;;;;;;;163.18;12.25;;;;;;;35.20;19.84;99676.88;5027471;28;20049;-77
2021/05/13 09:26:14;;;;;;;;;;;;;;;33.63;22.50;99671.44;5021424;28;20049;-77
2021/05/13 09:29:12;;;;;;;7.00;1.73;;;;;;;31.27;25.51;99673.44;5035448;28;19913;-77
2021/05/13 09:31:57;;;;;;;4.80;1.33;;;;;;;30.49;26.28;99659.81;5018075;28;20441;-75
2021/05/13 09:35:20;;;;;;;9.45;2.03;;;;;;;31.48;26.36;99671.53;5031538;28;20057;-76
2021/05/13 09:38:09;;;;;;;5.93;1.90;;;;;;;29.77;27.99;99661.63;5023288;28;20041;-75
2021/05/13 09:40:54;;;;;;;6.25;2.00;;;;;;;30.53;27.19;99661.19;5030881;28;20049;-74
2021/05/13 09:46:42;;;;;;;4.68;1.70;;;;;;;30.85;26.86;99665.16;5014411;28;20069;-75
2021/05/13 09:49:27;;;;;;;124.45;8.30;;;;;;;32.58;24.96;99659.72;5012045;28;20462;-75
2021/05/13 09:52:33;;;;;;;4.65;1.52;;;;;;;34.02;22.87;99657.72;5015911;28;20423;-75
2021/05/13 09:55:30;;;;;;;6.57;2.13;;;;;;;35.49;20.59;99658.66;5013332;28;20118;-75
2021/05/13 09:58:15;;;;;;;6.20;1.23;;;;;;;37.80;17.48;99665.41;5017297;28;20077;-76
2021/05/13 10:01:00;;;;;;;14.65;2.20;;;;;;;34.75;20.49;99661.75;5013314;28;20092;-75
2021/05/13 10:03:46;;;;;;;8.55;1.30;;;;;;;32.56;23.70;99651.75;5015763;28;20053;-89
2021/05/13 10:06:31;;;;;;;3.97;1.20;;;;;;;32.25;24.11;99660.06;5012186;28;20410;-76
2021/05/13 10:09:18;;;;;;;12.88;2.00;;;;;;;34.01;21.78;99652.56;5015245;28;20053;-75
2021/05/13 10:12:22;;;;;;;14.63;2.03;;;;;;;34.66;21.27;99651.41;5005207;28;20045;-74
2021/05/13 10:15:09;;;;;;;5.80;1.38;;;;;;;33.07;23.13;99651.13;5018344;28;20118;-75
2021/05/13 10:17:57;;;;;;;7.00;1.30;;;;;;;28.55;28.72;99642.22;5024092;28;20048;-75
2021/05/13 10:20:44;;;;;;;4.80;1.35;;;;;;;27.37;32.50;99647.28;5034713;28;20108;-78
2021/05/13 10:23:29;;;;;;;5.97;1.48;;;;;;;27.64;31.75;99642.66;5041560;28;20053;-79
2021/05/13 10:26:30;;;;;;;17.33;3.45;;;;;;;29.29;29.20;99629.81;5044949;28;20052;-79
2021/05/13 10:29:21;;;;;;;6.32;1.27;;;;;;;28.02;31.40;99633.22;5043802;28;20049;-79
2021/05/13 10:35:07;;;;;;;5.07;1.23;;;;;;;26.29;34.38;99624.34;5038925;28;20048;-78
2021/05/13 10:37:59;;;;;;;7.28;1.40;;;;;;;25.73;35.53;99626.88;5024256;28;20045;-79
2021/05/13 10:40:48;;;;;;;3.95;1.38;;;;;;;24.71;38.25;99622.97;5042408;28;20405;-79
2021/05/13 10:43:33;;;;;;;6.72;1.52;;;;;;;23.87;39.68;99617.53;5039806;28;20045;-79
2021/05/13 10:46:26;;;;;;;10.90;1.65;;;;;;;23.58;40.68;99614.59;5031886;28;20056;-79
2021/05/13 10:49:18;;;;;;;6.75;1.65;;;;;;;23.47;40.85;99608.47;5039415;28;20045;-79
2021/05/13 10:52:33;;;;;;;7.75;1.20;;;;;;;23.24;41.16;99605.78;5040153;28;20044;-79
2021/05/13 10:55:35;;;;;;;6.13;1.40;;;;;;;23.62;39.86;99606.97;5023340;28;20048;-79
2021/05/13 10:59:00;;;;;;;5.72;1.40;;;;;;;24.54;38.81;99604.75;5022059;28;20414;-79
2021/05/13 11:02:03;;;;;;;6.25;1.45;;;;;;;25.20;37.74;99608.94;5033765;28;20041;-78
2021/05/13 11:05:27;;;;;;;4.07;1.33;;;;;;;29.95;28.23;99615.97;5032505;28;20056;-78
2021/05/13 11:08:11;;;;;;;6.97;2.30;;;;;;;33.53;23.25;99610.84;5031532;28;20045;-84
2021/05/13 11:11:02;;;;;;;6.40;1.48;;;;;;;34.67;20.95;99607.78;5040768;28;20417;-78
2021/05/13 11:13:50;;;;;;;6.78;2.42;;;;;;;31.78;24.56;99610.47;5044313;28;20044;-79
2021/05/13 11:16:46;;;;;;;10.05;1.38;;;;;;;32.40;23.90;99606.53;5041593;28;20117;-79
2021/05/13 11:19:31;;;;;;;2.97;1.13;;;;;;;28.85;28.51;99601.41;5038479;28;20052;-80
2021/05/13 11:22:16;;;;;;;6.05;1.25;;;;;;;27.08;32.54;99597.28;5037197;28;20508;-81
2021/05/13 11:25:01;;;;;;;9.32;1.45;;;;;;;33.16;22.83;99585.44;5036357;28;20409;-81
2021/05/13 11:28:05;;;;;;;7.40;2.03;;;;;;;33.00;23.04;99586.78;5041988;28;20524;-81
2021/05/13 11:30:57;;;;;;;5.38;0.90;;;;;;;32.98;22.77;99591.34;5039347;28;20406;-81
2021/05/13 11:33:56;;;;;;;3.38;1.00;;;;;;;30.14;26.10;99580.97;5041974;28;20055;-82
2021/05/13 11:40:18;;;;;;;2.60;0.80;;;;;;;25.42;34.58;99582.06;5039417;28;20049;-80
2021/05/13 11:43:25;;;;;;;7.07;1.45;;;;;;;24.63;36.55;99573.56;5036776;28;20039;-81
2021/05/13 11:46:11;;;;;;;2.53;0.95;;;;;;;24.28;37.63;99569.69;5038066;28;20045;-81
2021/05/13 11:48:57;;;;;;;3.97;1.23;;;;;;;23.71;38.33;99576.63;5039591;28;20044;-82
2021/05/13 11:51:43;;;;;;;3.80;1.20;;;;;;;24.29;36.66;99571.28;5038120;28;20040;-81
2021/05/13 11:54:33;;;;;;;7.22;1.40;;;;;;;23.91;37.56;99573.00;5034458;28;20040;-82
2021/05/13 11:57:18;;;;;;;5.20;1.48;;;;;;;23.52;37.91;99568.38;5039700;28;20049;-82
2021/05/13 12:00:03;;;;;;;4.88;1.10;;;;;;;24.26;37.47;99569.38;5037086;28;20057;-82
2021/05/13 12:02:50;;;;;;;6.65;1.25;;;;;;;23.49;38.30;99556.13;5040370;28;20056;-84
2021/05/13 12:05:54;;;;;;;3.42;1.25;;;;;;;23.36;38.07;99560.75;5043338;28;20048;-85
2021/05/13 12:08:39;;;;;;;5.78;1.50;;;;;;;23.56;36.72;99558.75;5047197;28;20064;-85
2021/05/13 12:11:26;;;;;;;7.32;1.65;;;;;;;23.09;39.83;99560.13;5038347;28;20048;-84
2021/05/13 12:14:32;;;;;;;5.35;1.88;;;;;;;22.55;41.31;99558.38;5040748;28;20040;-84
2021/05/13 12:17:19;;;;;;;;;;;;;;;22.88;41.37;99553.03;5038658;28;20044;-83
2021/05/13 12:20:05;;;;;;;16.25;2.58;;;;;;;23.54;39.86;99549.28;5042430;28;19913;-84
2021/05/13 12:23:09;;;;;;;5.27;1.93;;;;;;;23.09;39.93;99551.81;5037771;28;20049;-84
2021/05/13 12:25:54;;;;;;;13.70;2.45;;;;;;;22.97;40.07;99542.94;5037634;28;20052;-84
2021/05/13 12:29:00;;;;;;;3.47;1.85;;;;;;;22.96;40.00;99538.59;5041693;28;20064;-85
2021/05/13 12:31:46;;;;;;;8.93;2.10;;;;;;;22.65;42.36;99540.00;5038337;28;20048;-84
2021/05/13 12:34:54;;;;;;;7.97;2.42;;;;;;;22.66;41.16;99536.00;5043232;28;20397;-82
2021/05/13 12:37:39;;;;;;;7.88;2.08;;;;;;;22.65;40.83;99540.00;5040344;28;20052;-85
2021/05/13 12:40:27;;;;;;;6.45;2.03;;;;;;;22.61;42.30;99534.50;5038846;28;20808;-84
2021/05/13 12:43:15;;;;;;;3.65;2.08;;;;;;;22.80;40.10;99535.78;5041537;28;20124;-85
2021/05/13 12:46:13;;;;;;;5.78;1.77;;;;;;;22.60;39.26;99526.63;5040607;28;20520;-85
2021/05/13 12:48:58;;;;;;;4.40;1.70;;;;;;;22.24;40.75;99522.97;5045599;28;20421;-85
2021/05/13 12:52:20;;;;;;;11.98;2.30;;;;;;;22.41;41.81;99519.06;5044574;28;20044;-86
2021/05/13 12:55:13;;;;;;;4.15;1.92;;;;;;;22.28;41.32;99518.13;5044496;28;20065;-85
2021/05/13 12:58:08;;;;;;;4.43;1.70;;;;;;;21.98;41.39;99525.38;5043920;28;20040;-85
2021/05/13 13:00:59;;;;;;;3.80;2.38;;;;;;;22.07;41.35;99517.31;5041289;28;20048;-85
2021/05/13 13:03:50;;;;;;;4.82;2.15;;;;;;;21.92;42.09;99520.69;5042714;28;20422;-85
2021/05/13 13:06:52;;;;;;;4.75;1.92;;;;;;;21.72;41.38;99510.34;5037042;28;20048;-88
2021/05/13 13:09:37;;;;;;;3.60;1.98;;;;;;;22.09;41.32;99501.06;5043842;28;20053;-86
2021/05/13 13:16:01;;;;;;;5.35;2.58;;;;;;;21.97;41.57;99507.19;5040260;28;20068;-86
2021/05/13 13:18:47;;;;;;;7.18;2.35;;;;;;;22.29;42.96;99503.88;5025894;28;20100;-86
2021/05/13 13:21:34;;;;;;;7.13;2.33;;;;;;;22.22;41.20;99498.44;5044522;28;20567;-86
2021/05/13 13:24:21;;;;;;;4.70;2.90;;;;;;;22.47;39.56;99490.44;5051530;28;20401;-85
2021/05/13 13:27:25;;;;;;;4.90;1.92;;;;;;;22.69;39.65;99496.38;5037296;28;20048;-86
2021/05/13 13:33:24;;;;;;;3.78;2.20;;;;;;;22.57;39.74;99488.69;5031750;28;20049;-87
2021/05/13 13:36:09;;;;;;;4.50;1.65;;;;;;;22.55;39.42;99493.88;5045489;28;20052;-86
2021/05/13 13:38:54;;;;;;;5.93;1.92;;;;;;;22.24;40.17;99493.28;5049169;28;20051;-84
2021/05/13 13:41:39;;;;;;;6.82;1.75;;;;;;;22.57;39.61;99491.44;5046211;23;20534;-82
2021/05/13 13:44:25;;;;;;;8.65;3.50;;;;;;;22.65;40.95;99494.88;5023799;28;20057;-82
2021/05/13 13:47:10;;;;;;;7.50;3.28;;;;;;;22.21;40.83;99483.03;5020673;28;20052;-83
2021/05/13 13:49:55;;;;;;;6.90;3.20;;;;;;;22.48;42.08;99480.16;5035727;28;20069;-80
2021/05/13 13:52:40;;;;;;;6.38;3.03;;;;;;;22.47;41.29;99490.44;5032242;28;20056;-81
2021/05/13 13:56:02;;;;;;;4.43;2.90;;;;;;;22.44;40.38;99499.63;5031310;28;20396;-83
2021/05/13 13:59:05;;;;;;;6.10;2.47;;;;;;;22.62;40.46;99499.25;5033316;28;20060;-81
2021/05/13 14:01:50;;;;;;;5.60;2.63;;;;;;;22.25;40.31;99497.59;5036258;28;20048;-84
2021/05/13 14:04:35;;;;;;;7.03;2.53;;;;;;;22.16;40.62;99492.63;5032002;28;20053;-83
2021/05/13 14:07:20;;;;;;;9.02;2.53;;;;;;;22.18;40.74;99483.88;5032807;28;20056;-82
2021/05/13 14:10:29;;;;;;;4.53;2.50;;;;;;;22.01;41.03;99485.75;5035942;28;20053;-81
2021/05/13 14:13:14;;;;;;;5.45;2.33;;;;;;;22.64;40.74;99483.00;5034270;28;20044;-82